createdAt,value
2019-05-07T00:01:12.152Z,3.36
2019-05-07T00:02:47.305Z,3.36
2019-05-07T00:04:22.742Z,3.37
2019-05-07T00:05:58.201Z,3.35
2019-05-07T00:07:33.717Z,3.37
2019-05-07T00:09:09.609Z,3.37
2019-05-07T00:10:46.884Z,3.37
2019-05-07T00:12:24.573Z,3.35
2019-05-07T00:14:03.549Z,3.35
2019-05-07T00:15:47.231Z,3.35
2019-05-07T00:17:24.608Z,3.37
2019-05-07T00:19:01.946Z,3.35
2019-05-07T00:20:36.824Z,3.34
2019-05-07T00:22:12.540Z,3.36
2019-05-07T00:23:47.956Z,3.36
2019-05-07T00:25:23.488Z,3.32
2019-05-07T00:26:58.711Z,3.32
2019-05-07T00:28:34.167Z,3.34
2019-05-07T00:30:09.575Z,3.33
2019-05-07T00:31:45.409Z,3.36
2019-05-07T00:33:22.719Z,3.39
2019-05-07T00:35:04.085Z,3.39
2019-05-07T00:37:02.054Z,3.43
2019-05-07T00:38:37.264Z,3.40
2019-05-07T00:40:22.522Z,3.40
2019-05-07T00:42:08.647Z,3.42
2019-05-07T00:43:45.402Z,3.41
2019-05-07T00:45:29.073Z,3.45
2019-05-07T00:47:04.241Z,3.49
2019-05-07T00:48:39.396Z,3.46
2019-05-07T00:50:22.421Z,3.48
2019-05-07T00:51:57.846Z,3.51
2019-05-07T00:53:34.143Z,3.52
2019-05-07T00:55:13.851Z,3.46
2019-05-07T00:56:49.180Z,3.44
2019-05-07T00:58:26.898Z,3.45
2019-05-07T01:00:02.200Z,3.46
2019-05-07T01:01:43.264Z,3.47
2019-05-07T01:03:18.767Z,3.47
2019-05-07T01:04:54.912Z,3.48
2019-05-07T01:06:29.954Z,3.44
2019-05-07T01:08:05.275Z,3.45
2019-05-07T01:09:42.960Z,3.42
2019-05-07T01:11:17.842Z,3.38
2019-05-07T01:12:53.426Z,3.39
2019-05-07T01:14:32.519Z,3.39
2019-05-07T01:16:07.823Z,3.39
2019-05-07T01:17:44.603Z,3.39
2019-05-07T01:19:21.988Z,3.41
2019-05-07T01:20:57.651Z,3.41
2019-05-07T01:22:33.544Z,3.38
2019-05-07T01:24:08.854Z,3.36
2019-05-07T01:25:44.468Z,3.34
2019-05-07T01:27:19.940Z,3.34
2019-05-07T01:29:02.810Z,3.33
2019-05-07T01:30:37.622Z,3.31
2019-05-07T01:32:22.175Z,3.32
2019-05-07T01:34:16.318Z,3.32
2019-05-07T01:36:22.724Z,3.33
2019-05-07T01:38:03.083Z,3.32
2019-05-07T01:39:37.963Z,3.29
2019-05-07T01:41:14.075Z,3.33
2019-05-07T01:42:49.637Z,3.32
2019-05-07T01:44:25.462Z,3.33
2019-05-07T01:46:03.173Z,3.40
2019-05-07T01:47:37.881Z,3.40
2019-05-07T01:49:12.984Z,3.41
2019-05-07T01:50:49.535Z,3.39
2019-05-07T01:52:25.013Z,3.45
2019-05-07T01:54:02.207Z,3.47
2019-05-07T01:55:37.722Z,3.40
2019-05-07T01:57:12.945Z,3.34
2019-05-07T01:58:48.448Z,3.33
2019-05-07T02:00:25.313Z,3.33
2019-05-07T02:02:06.571Z,3.36
2019-05-07T02:03:59.512Z,3.34
2019-05-07T02:05:42.415Z,3.35
2019-05-07T02:07:36.678Z,3.31
2019-05-07T02:09:29.215Z,3.30
2019-05-07T02:11:06.316Z,3.28
2019-05-07T02:12:42.541Z,3.29
2019-05-07T02:14:21.960Z,3.22
2019-05-07T02:16:01.279Z,3.18
2019-05-07T02:17:32.387Z,3.20
2019-05-07T02:19:07.603Z,3.17
2019-05-07T02:20:43.411Z,3.19
2019-05-07T02:22:18.675Z,3.15
2019-05-07T02:23:53.912Z,3.15
2019-05-07T02:25:28.988Z,3.10
2019-05-07T02:27:04.434Z,3.09
2019-05-07T02:28:43.586Z,3.15
2019-05-07T02:30:24.680Z,3.10
2019-05-07T02:32:00.000Z,3.03
2019-05-07T02:33:43.455Z,3.01
2019-05-07T02:35:18.970Z,3.01
2019-05-07T02:36:54.287Z,2.97
2019-05-07T02:38:44.429Z,2.95
2019-05-07T02:40:28.145Z,2.98
2019-05-07T02:42:08.903Z,2.96
2019-05-07T02:43:48.292Z,2.95
2019-05-07T02:45:44.293Z,2.99
2019-05-07T02:47:23.510Z,2.95
2019-05-07T02:49:14.453Z,2.98
2019-05-07T02:51:03.842Z,2.96
2019-05-07T02:52:55.334Z,2.96
2019-05-07T02:54:49.607Z,2.98
2019-05-07T02:56:26.342Z,2.91
2019-05-07T02:58:03.536Z,2.95
2019-05-07T02:59:40.110Z,2.88
2019-05-07T03:01:15.342Z,2.84
2019-05-07T03:02:53.034Z,2.81
2019-05-07T03:04:28.069Z,2.84
2019-05-07T03:06:05.150Z,2.83
2019-05-07T03:07:42.717Z,2.83
2019-05-07T03:09:17.231Z,2.81
2019-05-07T03:10:52.849Z,2.81
2019-05-07T03:12:28.227Z,2.87
2019-05-07T03:14:03.687Z,2.91
2019-05-07T03:15:39.187Z,2.99
2019-05-07T03:17:15.311Z,2.95
2019-05-07T03:18:53.075Z,2.98
2019-05-07T03:20:33.907Z,2.96
2019-05-07T03:22:09.325Z,2.95
2019-05-07T03:24:05.935Z,2.98
2019-05-07T03:25:58.714Z,2.98
2019-05-07T03:27:34.740Z,2.95
2019-05-07T03:29:14.270Z,2.95
2019-05-07T03:30:56.947Z,2.87
2019-05-07T03:32:48.183Z,2.84
2019-05-07T03:34:36.181Z,2.93
2019-05-07T03:36:08.220Z,2.92
2019-05-07T03:37:46.127Z,2.96
2019-05-07T03:39:23.983Z,2.93
2019-05-07T03:41:00.160Z,2.92
2019-05-07T03:42:35.191Z,2.90
2019-05-07T03:44:26.091Z,2.84
2019-05-07T03:46:06.896Z,2.88
2019-05-07T03:47:44.698Z,2.89
2019-05-07T03:49:29.734Z,2.86
2019-05-07T03:51:04.967Z,2.85
2019-05-07T03:52:42.581Z,2.84
2019-05-07T03:54:18.488Z,2.80
2019-05-07T03:55:54.245Z,2.78
2019-05-07T03:57:33.022Z,2.75
2019-05-07T03:59:06.974Z,2.70
2019-05-07T04:00:44.361Z,2.71
2019-05-07T04:02:19.601Z,2.80
2019-05-07T04:03:55.105Z,2.88
2019-05-07T04:05:33.880Z,2.84
2019-05-07T04:07:07.432Z,2.84
2019-05-07T04:08:43.460Z,2.88
2019-05-07T04:10:19.065Z,2.83
2019-05-07T04:11:54.265Z,2.85
2019-05-07T04:13:29.344Z,2.87
2019-05-07T04:15:05.948Z,2.78
2019-05-07T04:16:44.087Z,2.78
2019-05-07T04:18:18.780Z,2.82
2019-05-07T04:19:53.979Z,2.83
2019-05-07T04:21:29.115Z,2.85
2019-05-07T04:23:04.524Z,2.86
2019-05-07T04:24:47.160Z,2.87
2019-05-07T04:26:38.459Z,2.92
2019-05-07T04:28:19.369Z,2.95
2019-05-07T04:29:58.587Z,2.97
2019-05-07T04:31:38.027Z,2.95
2019-05-07T04:33:15.089Z,2.95
2019-05-07T04:35:07.179Z,3.03
2019-05-07T04:36:45.543Z,3.06
2019-05-07T04:38:23.591Z,3.09
2019-05-07T04:39:57.808Z,3.15
2019-05-07T04:41:33.219Z,3.20
2019-05-07T04:43:08.484Z,3.27
2019-05-07T04:44:43.927Z,3.29
2019-05-07T04:46:19.353Z,3.33
2019-05-07T04:47:54.808Z,3.40
2019-05-07T04:49:33.000Z,3.49
2019-05-07T04:51:08.490Z,3.53
2019-05-07T04:52:50.484Z,3.57
2019-05-07T04:54:27.058Z,3.65
2019-05-07T04:56:04.641Z,3.71
2019-05-07T04:57:39.813Z,3.73
2019-05-07T04:59:15.021Z,3.80
2019-05-07T05:00:53.551Z,3.86
2019-05-07T05:02:35.680Z,3.88
2019-05-07T05:04:25.621Z,3.92
2019-05-07T05:05:47.799Z,4.05
2019-05-07T05:07:22.960Z,4.15
2019-05-07T05:09:05.116Z,4.23
2019-05-07T05:10:43.519Z,4.33
2019-05-07T05:12:18.998Z,4.41
2019-05-07T05:13:56.030Z,4.46
2019-05-07T05:15:32.109Z,4.41
2019-05-07T05:17:08.793Z,4.39
2019-05-07T05:18:44.331Z,4.43
2019-05-07T05:20:22.208Z,4.40
2019-05-07T05:22:19.263Z,4.46
2019-05-07T05:23:58.850Z,4.57
2019-05-07T05:25:37.236Z,4.66
2019-05-07T05:27:12.529Z,4.78
2019-05-07T05:28:47.926Z,4.78
2019-05-07T05:30:32.651Z,4.79
2019-05-07T05:32:11.993Z,4.88
2019-05-07T05:33:49.287Z,4.88
2019-05-07T05:35:24.643Z,4.81
2019-05-07T05:36:59.912Z,4.85
2019-05-07T05:38:35.905Z,4.76
2019-05-07T05:40:13.271Z,5.01
2019-05-07T05:41:55.131Z,5.15
2019-05-07T05:43:40.057Z,5.32
2019-05-07T05:45:35.753Z,5.33
2019-05-07T05:47:12.066Z,5.12
2019-05-07T05:48:51.886Z,5.24
2019-05-07T05:50:28.618Z,5.32
2019-05-07T05:52:18.044Z,5.23
2019-05-07T05:54:07.469Z,5.37
2019-05-07T05:55:45.346Z,5.24
2019-05-07T05:57:48.219Z,5.54
2019-05-07T05:59:51.999Z,5.66
2019-05-07T06:02:05.926Z,5.42
2019-05-07T06:04:03.495Z,5.61
2019-05-07T06:05:56.904Z,5.84
2019-05-07T06:07:53.663Z,5.96
2019-05-07T06:09:47.547Z,6.26
2019-05-07T06:11:44.426Z,6.53
2019-05-07T06:13:35.168Z,6.70
2019-05-07T06:15:38.114Z,6.75
2019-05-07T06:17:42.488Z,7.03
2019-05-07T06:19:38.872Z,7.06
2019-05-07T06:21:33.034Z,7.41
2019-05-07T06:23:33.192Z,7.27
2019-05-07T06:25:14.858Z,7.44
2019-05-07T06:26:55.852Z,7.55
2019-05-07T06:28:33.104Z,7.76
2019-05-07T06:30:11.931Z,7.88
2019-05-07T06:32:02.859Z,7.68
2019-05-07T06:33:38.277Z,7.41
2019-05-07T06:35:19.091Z,7.70
2019-05-07T06:36:55.378Z,7.82
2019-05-07T06:38:36.324Z,7.93
2019-05-07T06:40:34.229Z,8.16
2019-05-07T06:42:33.977Z,8.27
2019-05-07T06:44:14.419Z,8.47
2019-05-07T06:45:52.978Z,8.57
2019-05-07T06:47:28.191Z,8.68
2019-05-07T06:49:03.812Z,9.03
2019-05-07T06:50:43.274Z,8.83
2019-05-07T06:52:18.521Z,8.66
2019-05-07T06:53:55.508Z,8.92
2019-05-07T06:55:33.494Z,8.73
2019-05-07T06:57:12.886Z,9.10
2019-05-07T06:59:15.271Z,9.18
2019-05-07T07:01:12.260Z,8.97
2019-05-07T07:02:58.991Z,9.10
2019-05-07T07:04:59.429Z,9.56
2019-05-07T07:06:52.511Z,9.64
2019-05-07T07:08:33.238Z,9.78
2019-05-07T07:10:27.971Z,9.81
2019-05-07T07:12:05.957Z,9.72
2019-05-07T07:13:43.145Z,9.73
2019-05-07T07:15:23.215Z,9.72
2019-05-07T07:16:58.227Z,10.07
2019-05-07T07:18:33.312Z,10.06
2019-05-07T07:20:12.719Z,10.18
2019-05-07T07:21:49.064Z,10.22
2019-05-07T07:23:32.381Z,10.56
2019-05-07T07:25:08.129Z,10.68
2019-05-07T07:26:43.595Z,10.86
2019-05-07T07:28:21.907Z,10.30
2019-05-07T07:30:32.622Z,10.04
2019-05-07T07:32:08.811Z,10.20
2019-05-07T07:33:53.105Z,10.17
2019-05-07T07:35:32.364Z,10.29
2019-05-07T07:40:13.406Z,9.58
2019-05-07T07:41:55.079Z,9.26
2019-05-07T07:43:32.594Z,8.68
2019-05-07T07:45:23.007Z,8.50
2019-05-07T07:46:55.823Z,8.41
2019-05-07T07:48:32.158Z,8.43
2019-05-07T07:50:12.912Z,8.05
2019-05-07T07:51:47.843Z,8.17
2019-05-07T07:53:23.426Z,8.14
2019-05-07T07:55:02.175Z,8.18
2019-05-07T07:57:02.168Z,8.43
2019-05-07T07:59:12.492Z,8.39
2019-05-07T08:01:02.971Z,8.39
2019-05-07T08:02:50.333Z,8.11
2019-05-07T08:04:27.337Z,8.01
2019-05-07T08:06:03.076Z,7.87
2019-05-07T08:07:38.243Z,7.73
2019-05-07T08:09:13.339Z,7.92
2019-05-07T08:10:52.012Z,8.09
2019-05-07T08:12:32.509Z,8.39
2019-05-07T08:14:21.922Z,8.45
2019-05-07T08:15:58.894Z,8.55
2019-05-07T08:17:33.970Z,8.80
2019-05-07T08:19:24.381Z,8.97
2019-05-07T08:21:07.895Z,9.03
2019-05-07T08:22:43.496Z,9.03
2019-05-07T08:24:24.250Z,8.94
2019-05-07T08:25:59.847Z,8.95
2019-05-07T08:27:35.105Z,8.79
2019-05-07T08:29:12.760Z,8.47
2019-05-07T08:31:16.041Z,8.24
2019-05-07T08:32:59.119Z,8.17
2019-05-07T08:34:56.395Z,7.97
2019-05-07T08:36:33.124Z,8.19
2019-05-07T08:38:09.290Z,8.44
2019-05-07T08:39:47.350Z,8.56
2019-05-07T08:41:26.121Z,8.49
2019-05-07T08:43:17.626Z,8.51
2019-05-07T08:45:25.053Z,8.52
2019-05-07T08:47:12.141Z,8.26
2019-05-07T08:48:52.903Z,8.43
2019-05-07T08:50:29.673Z,8.68
2019-05-07T08:52:05.818Z,8.80
2019-05-07T08:53:42.312Z,9.03
2019-05-07T08:55:17.552Z,8.78
2019-05-07T08:56:53.043Z,8.89
2019-05-07T08:58:28.581Z,9.05
2019-05-07T09:00:12.286Z,8.80
2019-05-07T09:01:48.248Z,8.79
2019-05-07T09:03:51.751Z,8.76
2019-05-07T09:05:27.081Z,8.81
2019-05-07T09:07:02.801Z,8.68
2019-05-07T09:08:38.394Z,8.70
2019-05-07T09:10:17.859Z,8.54
2019-05-07T09:11:53.003Z,7.96
2019-05-07T09:13:28.144Z,8.37
2019-05-07T09:15:06.460Z,8.45
2019-05-07T09:16:42.829Z,8.43
2019-05-07T09:18:22.838Z,8.56
2019-05-07T09:19:58.998Z,8.61
2019-05-07T09:21:37.783Z,8.38
2019-05-07T09:23:13.867Z,8.78
2019-05-07T09:24:49.706Z,8.65
2019-05-07T09:26:32.360Z,8.97
2019-05-07T09:28:09.139Z,9.26
2019-05-07T09:30:03.867Z,9.38
2019-05-07T09:32:16.121Z,9.17
2019-05-07T09:33:53.700Z,8.97
2019-05-07T09:35:47.191Z,9.59
2019-05-07T09:37:33.878Z,9.46
2019-05-07T09:39:12.146Z,9.82
2019-05-07T09:40:56.872Z,10.28
2019-05-07T09:42:32.975Z,10.16
2019-05-07T09:44:11.822Z,10.01
2019-05-07T09:45:49.401Z,10.30
2019-05-07T09:47:26.101Z,10.47
2019-05-07T09:49:03.129Z,10.60
2019-05-07T09:50:38.482Z,10.97
2019-05-07T09:52:13.665Z,11.25
2019-05-07T09:53:52.638Z,11.68
2019-05-07T09:55:32.320Z,11.64
2019-05-07T09:57:07.091Z,11.65
2019-05-07T09:58:48.826Z,11.65
2019-05-07T10:00:24.757Z,10.92
2019-05-07T10:02:01.904Z,10.20
2019-05-07T10:03:42.757Z,10.22
2019-05-07T10:05:19.382Z,10.31
2019-05-07T10:07:04.445Z,10.15
2019-05-07T10:08:42.087Z,10.69
2019-05-07T10:10:17.882Z,10.65
2019-05-07T10:12:30.390Z,10.41
2019-05-07T10:14:12.759Z,10.86
2019-05-07T10:16:09.033Z,10.69
2019-05-07T10:17:49.537Z,10.39
2019-05-07T10:19:32.343Z,10.74
2019-05-07T10:21:07.034Z,11.08
2019-05-07T10:22:43.656Z,10.73
2019-05-07T10:24:22.089Z,10.56
2019-05-07T10:25:58.647Z,10.71
2019-05-07T10:27:55.726Z,10.50
2019-05-07T10:29:38.092Z,10.68
2019-05-07T10:31:14.082Z,10.93
2019-05-07T10:32:52.797Z,10.78
2019-05-07T10:34:29.363Z,10.95
2019-05-07T10:36:06.212Z,11.13
2019-05-07T10:37:52.843Z,11.10
2019-05-07T10:39:32.563Z,11.03
2019-05-07T10:41:22.480Z,10.99
2019-05-07T10:43:08.242Z,10.12
2019-05-07T10:45:15.711Z,10.04
2019-05-07T10:47:14.219Z,9.92
2019-05-07T10:48:55.438Z,9.46
2019-05-07T10:50:38.890Z,9.37
2019-05-07T10:52:12.554Z,9.34
2019-05-07T10:53:52.508Z,9.24
2019-05-07T10:55:28.912Z,9.13
2019-05-07T10:57:04.854Z,8.73
2019-05-07T10:58:47.340Z,8.70
2019-05-07T11:00:30.043Z,8.64
2019-05-07T11:02:14.262Z,8.45
2019-05-07T11:03:51.735Z,8.38
2019-05-07T11:05:29.516Z,8.30
2019-05-07T11:07:06.783Z,8.30
2019-05-07T11:08:43.223Z,8.41
2019-05-07T11:10:28.037Z,8.42
2019-05-07T11:12:04.387Z,8.54
2019-05-07T11:13:43.576Z,8.66
2019-05-07T11:15:22.087Z,8.59
2019-05-07T11:17:17.994Z,8.80
2019-05-07T11:19:02.067Z,8.81
2019-05-07T11:20:47.387Z,8.74
2019-05-07T11:22:22.153Z,8.57
2019-05-07T11:24:03.024Z,8.72
2019-05-07T11:25:41.947Z,8.80
2019-05-07T11:27:19.357Z,8.82
2019-05-07T11:28:57.928Z,8.96
2019-05-07T11:30:37.241Z,8.89
2019-05-07T11:32:21.549Z,8.88
2019-05-07T11:33:58.376Z,9.06
2019-05-07T11:35:37.972Z,8.94
2019-05-07T11:37:13.654Z,9.10
2019-05-07T11:38:52.695Z,9.17
2019-05-07T11:40:32.073Z,9.21
2019-05-07T11:42:29.316Z,9.18
2019-05-07T11:44:15.752Z,9.27
2019-05-07T11:46:23.326Z,9.32
2019-05-07T11:48:04.566Z,9.12
2019-05-07T11:50:03.181Z,9.17
2019-05-07T11:52:04.540Z,9.03
2019-05-07T11:54:03.319Z,9.09
2019-05-07T11:55:48.578Z,9.09
2019-05-07T11:57:23.272Z,8.79
2019-05-07T11:59:02.898Z,8.20
2019-05-07T12:00:45.008Z,8.32
2019-05-07T12:02:26.418Z,8.26
2019-05-07T12:06:03.469Z,8.33
2019-05-07T12:07:47.484Z,8.54
2019-05-07T12:09:28.590Z,8.70
2019-05-07T12:11:05.068Z,8.72
2019-05-07T12:12:52.129Z,8.86
2019-05-07T12:14:34.265Z,9.05
2019-05-07T12:16:11.296Z,9.16
2019-05-07T12:18:52.444Z,9.18
2019-05-07T12:20:29.613Z,9.43
2019-05-07T12:22:07.333Z,9.36
2019-05-07T12:23:42.424Z,9.54
2019-05-07T12:25:18.419Z,9.45
2019-05-07T12:26:53.786Z,9.63
2019-05-07T12:28:35.650Z,9.59
2019-05-07T12:30:13.995Z,9.77
2019-05-07T12:32:14.074Z,9.84
2019-05-07T12:34:08.216Z,9.75
2019-05-07T12:35:44.149Z,9.57
2019-05-07T12:37:22.597Z,9.55
2019-05-07T12:38:57.841Z,9.54
2019-05-07T12:40:37.567Z,9.36
2019-05-07T12:42:14.480Z,9.25
2019-05-07T12:43:55.939Z,9.28
2019-05-07T12:45:33.343Z,9.24
2019-05-07T12:47:08.688Z,8.94
2019-05-07T12:48:46.702Z,8.59
2019-05-07T12:50:27.487Z,8.40
2019-05-07T12:52:26.336Z,8.37
2019-05-07T12:54:26.532Z,8.51
2019-05-07T12:56:02.301Z,8.59
2019-05-07T12:57:42.091Z,8.70
2019-05-07T12:59:18.894Z,8.71
2019-05-07T13:01:07.243Z,8.61
2019-05-07T13:03:18.888Z,8.57
2019-05-07T13:04:52.159Z,8.44
2019-05-07T13:06:32.546Z,8.48
2019-05-07T13:08:14.114Z,8.51
2019-05-07T13:09:57.632Z,8.26
2019-05-07T13:11:32.467Z,8.20
2019-05-07T13:13:21.651Z,8.19
2019-05-07T13:15:02.761Z,8.08
2019-05-07T13:16:35.843Z,7.90
2019-05-07T13:18:14.224Z,7.93
2019-05-07T13:19:52.299Z,7.93
2019-05-07T13:21:46.484Z,7.86
2019-05-07T13:23:11.961Z,8.04
2019-05-07T13:24:52.747Z,8.18
2019-05-07T13:26:33.687Z,8.27
2019-05-07T13:28:11.918Z,8.61
2019-05-07T13:29:47.203Z,8.78
2019-05-07T13:31:32.707Z,8.88
2019-05-07T13:33:13.516Z,9.12
2019-05-07T13:34:51.979Z,9.44
2019-05-07T13:36:27.956Z,9.26
2019-05-07T13:38:23.482Z,9.02
2019-05-07T13:40:03.048Z,8.93
2019-05-07T13:41:57.078Z,9.22
2019-05-07T13:43:40.249Z,9.54
2019-05-07T13:45:27.074Z,9.59
2019-05-07T13:47:23.998Z,9.56
2019-05-07T13:49:01.972Z,9.70
2019-05-07T13:50:43.587Z,9.68
2019-05-07T13:52:19.192Z,9.94
2019-05-07T13:53:59.511Z,9.79
2019-05-07T13:55:55.169Z,9.49
2019-05-07T13:57:38.365Z,9.61
2019-05-07T13:59:16.331Z,9.62
2019-05-07T14:01:32.783Z,9.45
2019-05-07T14:03:08.027Z,9.40
2019-05-07T14:04:44.288Z,9.49
2019-05-07T14:06:36.704Z,9.29
2019-05-07T14:08:14.845Z,9.25
2019-05-07T14:09:52.873Z,9.29
2019-05-07T14:11:38.551Z,9.44
2019-05-07T14:13:17.586Z,9.49
2019-05-07T14:14:53.154Z,9.45
2019-05-07T14:16:45.077Z,9.37
2019-05-07T14:18:23.235Z,9.12
2019-05-07T14:19:58.106Z,9.62
2019-05-07T14:21:37.286Z,9.99
2019-05-07T14:23:15.590Z,9.91
2019-05-07T14:24:56.322Z,9.58
2019-05-07T14:26:32.523Z,9.54
2019-05-07T14:28:09.361Z,9.64
2019-05-07T14:29:47.645Z,10.06
2019-05-07T14:31:33.481Z,10.20
2019-05-07T14:33:14.951Z,10.44
2019-05-07T14:35:24.295Z,10.89
2019-05-07T14:37:27.705Z,11.10
2019-05-07T14:39:06.466Z,11.64
2019-05-07T14:40:45.555Z,11.12
2019-05-07T14:42:34.113Z,11.52
2019-05-07T14:44:14.425Z,11.66
2019-05-07T14:45:53.952Z,11.63
2019-05-07T14:47:32.949Z,11.32
2019-05-07T14:49:12.065Z,10.64
2019-05-07T14:50:53.033Z,10.26
2019-05-07T14:52:33.832Z,10.24
2019-05-07T14:54:18.318Z,10.29
2019-05-07T14:55:48.735Z,10.03
2019-05-07T14:57:43.347Z,10.03
2019-05-07T14:59:20.339Z,10.08
2019-05-07T15:01:02.880Z,10.24
2019-05-07T15:02:44.508Z,10.39
2019-05-07T15:04:22.030Z,10.71
2019-05-07T15:05:59.605Z,10.86
2019-05-07T15:07:36.486Z,10.98
2019-05-07T15:09:13.095Z,10.85
2019-05-07T15:10:52.474Z,10.61
2019-05-07T15:12:36.146Z,10.94
2019-05-07T15:14:12.110Z,11.14
2019-05-07T15:15:47.744Z,11.33
2019-05-07T15:17:32.592Z,11.36
2019-05-07T15:19:12.453Z,11.21
2019-05-07T15:20:52.444Z,11.12
2019-05-07T15:22:49.170Z,11.21
2019-05-07T15:24:18.849Z,11.12
2019-05-07T15:25:57.386Z,10.56
2019-05-07T15:27:32.520Z,10.68
2019-05-07T15:29:14.531Z,10.62
2019-05-07T15:31:02.816Z,10.25
2019-05-07T15:32:37.940Z,10.35
2019-05-07T15:34:13.303Z,10.34
2019-05-07T15:35:54.655Z,10.10
2019-05-07T15:37:32.197Z,9.81
2019-05-07T15:39:07.498Z,9.95
2019-05-07T15:40:42.780Z,9.92
2019-05-07T15:42:24.187Z,9.89
2019-05-07T15:43:59.746Z,10.03
2019-05-07T15:45:38.758Z,10.10
2019-05-07T15:47:37.238Z,10.24
2019-05-07T15:49:25.193Z,10.10
2019-05-07T15:51:03.137Z,10.05
2019-05-07T15:52:57.608Z,10.02
2019-05-07T15:54:32.463Z,10.24
2019-05-07T15:56:08.690Z,10.33
2019-05-07T15:57:46.566Z,10.58
2019-05-07T15:59:24.770Z,10.38
2019-05-07T16:01:02.625Z,10.18
2019-05-07T16:02:40.899Z,10.20
2019-05-07T16:04:21.902Z,10.30
2019-05-07T16:05:53.538Z,10.58
2019-05-07T16:07:36.890Z,10.64
2019-05-07T16:09:13.076Z,10.39
2019-05-07T16:10:48.640Z,10.29
2019-05-07T16:12:24.180Z,10.54
2019-05-07T16:14:17.367Z,10.66
2019-05-07T16:15:52.953Z,10.71
2019-05-07T16:17:39.258Z,10.62
2019-05-07T16:19:28.553Z,10.98
2019-05-07T16:21:05.452Z,11.03
2019-05-07T16:22:49.152Z,11.08
2019-05-07T16:24:34.104Z,11.16
2019-05-07T16:26:12.962Z,11.02
2019-05-07T16:27:50.294Z,11.28
2019-05-07T16:29:25.438Z,11.05
2019-05-07T16:31:18.354Z,11.01
2019-05-07T16:32:55.418Z,11.08
2019-05-07T16:34:32.586Z,11.34
2019-05-07T16:36:19.999Z,11.34
2019-05-07T16:37:59.210Z,11.31
2019-05-07T16:39:34.960Z,10.98
2019-05-07T16:41:14.248Z,10.71
2019-05-07T16:43:02.782Z,10.43
2019-05-07T16:44:42.663Z,10.09
2019-05-07T16:46:22.378Z,10.06
2019-05-07T16:48:03.173Z,10.02
2019-05-07T16:49:48.166Z,10.00
2019-05-07T16:51:28.129Z,10.00
2019-05-07T16:53:05.297Z,10.04
2019-05-07T16:54:47.367Z,10.03
2019-05-07T16:56:33.367Z,9.85
2019-05-07T16:58:35.005Z,9.98
2019-05-07T17:00:14.673Z,10.07
2019-05-07T17:01:52.355Z,9.93
2019-05-07T17:03:39.100Z,9.86
2019-05-07T17:05:19.995Z,9.77
2019-05-07T17:06:58.225Z,9.83
2019-05-07T17:09:06.509Z,9.83
2019-05-07T17:10:52.261Z,9.82
2019-05-07T17:12:52.824Z,9.86
2019-05-07T17:14:51.894Z,9.94
2019-05-07T17:16:35.819Z,9.93
2019-05-07T17:18:28.189Z,10.07
2019-05-07T17:20:09.377Z,10.14
2019-05-07T17:21:52.281Z,10.27
2019-05-07T17:23:44.014Z,10.31
2019-05-07T17:25:29.823Z,10.22
2019-05-07T17:27:12.479Z,10.20
2019-05-07T17:28:51.975Z,10.21
2019-05-07T17:30:24.811Z,10.33
2019-05-07T17:32:12.359Z,10.33
2019-05-07T17:34:04.633Z,10.49
2019-05-07T17:35:42.354Z,10.53
2019-05-07T17:37:18.053Z,10.69
2019-05-07T17:39:00.246Z,10.74
2019-05-07T17:40:46.895Z,10.84
2019-05-07T17:42:24.438Z,10.85
2019-05-07T17:44:04.537Z,10.74
2019-05-07T17:45:42.994Z,10.74
2019-05-07T17:47:26.075Z,10.66
2019-05-07T17:48:58.798Z,10.21
2019-05-07T17:51:01.912Z,10.28
2019-05-07T17:52:44.421Z,10.10
2019-05-07T17:54:24.587Z,10.13
2019-05-07T17:56:03.614Z,9.99
2019-05-07T17:57:41.810Z,9.78
2019-05-07T17:59:21.539Z,9.60
2019-05-07T18:01:01.766Z,9.40
2019-05-07T18:02:54.918Z,9.50
2019-05-07T18:04:47.462Z,9.33
2019-05-07T18:06:32.087Z,9.36
2019-05-07T18:08:09.107Z,9.37
2019-05-07T18:09:45.865Z,9.25
2019-05-07T18:11:24.373Z,9.26
2019-05-07T18:13:08.196Z,9.18
2019-05-07T18:14:44.170Z,9.13
2019-05-07T18:16:36.730Z,9.16
2019-05-07T18:18:22.676Z,9.10
2019-05-07T18:20:00.572Z,8.97
2019-05-07T18:21:41.858Z,8.88
2019-05-07T18:23:25.025Z,8.87
2019-05-07T18:25:21.745Z,8.81
2019-05-07T18:26:55.395Z,8.71
2019-05-07T18:28:34.665Z,8.62
2019-05-07T18:30:22.468Z,8.62
2019-05-07T18:32:01.317Z,8.57
2019-05-07T18:33:47.736Z,8.51
2019-05-07T18:35:25.628Z,8.44
2019-05-07T18:37:03.678Z,8.38
2019-05-07T18:38:42.535Z,8.36
2019-05-07T18:40:17.610Z,8.30
2019-05-07T18:41:52.963Z,8.19
2019-05-07T18:43:28.605Z,8.16
2019-05-07T18:45:06.429Z,8.16
2019-05-07T18:46:45.721Z,8.11
2019-05-07T18:48:26.233Z,8.06
2019-05-07T18:50:04.447Z,7.98
2019-05-07T18:51:43.434Z,7.86
2019-05-07T18:53:25.894Z,7.75
2019-05-07T18:55:26.433Z,7.70
2019-05-07T18:57:02.418Z,7.54
2019-05-07T18:58:38.255Z,7.40
2019-05-07T19:00:27.355Z,7.32
2019-05-07T19:02:04.145Z,7.30
2019-05-07T19:03:41.973Z,7.26
2019-05-07T19:05:22.511Z,7.25
2019-05-07T19:07:02.576Z,7.18
2019-05-07T19:08:42.071Z,7.14
2019-05-07T19:10:23.098Z,7.01
2019-05-07T19:12:08.626Z,7.01
2019-05-07T19:13:44.859Z,6.98
2019-05-07T19:15:25.858Z,6.97
2019-05-07T19:17:06.137Z,6.93
2019-05-07T19:18:43.175Z,6.90
2019-05-07T19:20:32.621Z,6.83
2019-05-07T19:22:08.141Z,6.82
2019-05-07T19:23:43.647Z,6.81
2019-05-07T19:25:19.951Z,6.75
2019-05-07T19:26:55.653Z,6.72
2019-05-07T19:28:32.973Z,6.67
2019-05-07T19:30:13.394Z,6.73
2019-05-07T19:31:48.727Z,6.65
2019-05-07T19:33:27.026Z,6.64
2019-05-07T19:35:07.281Z,6.62
2019-05-07T19:36:52.017Z,6.58
2019-05-07T19:38:32.352Z,6.52
2019-05-07T19:40:13.576Z,6.51
2019-05-07T19:41:52.342Z,6.56
2019-05-07T19:43:28.298Z,6.52
2019-05-07T19:45:18.000Z,6.49
2019-05-07T19:46:52.428Z,6.42
2019-05-07T19:48:35.504Z,6.41
2019-05-07T19:50:14.105Z,6.39
2019-05-07T19:51:52.345Z,6.37
2019-05-07T19:53:32.716Z,6.33
2019-05-07T19:55:09.279Z,6.34
2019-05-07T19:56:52.751Z,6.34
2019-05-07T19:58:32.731Z,6.32
2019-05-07T20:00:12.116Z,6.29
2019-05-07T20:01:53.033Z,6.26
2019-05-07T20:03:31.406Z,6.20
2019-05-07T20:05:07.437Z,6.16
2019-05-07T20:07:04.376Z,6.14
2019-05-07T20:08:43.095Z,6.10
2019-05-07T20:10:34.237Z,6.06
2019-05-07T20:12:13.396Z,6.05
2019-05-07T20:13:52.372Z,6.03
2019-05-07T20:15:34.666Z,6.01
2019-05-07T20:17:17.276Z,6.00
2019-05-07T20:19:00.195Z,6.01
2019-05-07T20:20:43.765Z,5.99
2019-05-07T20:22:22.134Z,6.09
2019-05-07T20:23:58.773Z,6.07
2019-05-07T20:25:34.719Z,6.05
2019-05-07T20:27:15.852Z,6.08
2019-05-07T20:28:56.342Z,6.10
2019-05-07T20:30:34.709Z,6.09
2019-05-07T20:32:10.066Z,6.09
2019-05-07T20:33:48.017Z,6.08
2019-05-07T20:35:24.175Z,6.07
2019-05-07T20:37:03.998Z,6.02
2019-05-07T20:38:42.849Z,6.01
2019-05-07T20:40:25.662Z,6.02
2019-05-07T20:42:07.455Z,5.98
2019-05-07T20:43:52.376Z,6.02
2019-05-07T20:45:33.352Z,6.05
2019-05-07T20:47:14.121Z,6.03
2019-05-07T20:48:52.588Z,6.05
2019-05-07T20:50:28.001Z,6.04
2019-05-07T20:52:04.457Z,6.06
2019-05-07T20:54:03.242Z,6.03
2019-05-07T20:55:52.860Z,6.07
2019-05-07T20:57:31.959Z,6.05
2019-05-07T20:59:21.990Z,6.03
2019-05-07T21:01:04.340Z,6.00
2019-05-07T21:02:48.009Z,5.95
2019-05-07T21:04:22.240Z,5.95
2019-05-07T21:06:05.139Z,5.96
2019-05-07T21:07:42.390Z,5.96
2019-05-07T21:09:17.605Z,5.95
2019-05-07T21:10:53.870Z,5.95
2019-05-07T21:12:30.095Z,5.95
2019-05-07T21:14:05.231Z,5.94
2019-05-07T21:15:44.200Z,5.95
2019-05-07T21:17:19.034Z,5.95
2019-05-07T21:18:54.397Z,5.93
2019-05-07T21:20:32.342Z,5.91
2019-05-07T21:22:08.928Z,5.85
2019-05-07T21:23:47.086Z,5.82
2019-05-07T21:25:22.798Z,5.76
2019-05-07T21:27:02.403Z,5.68
2019-05-07T21:28:56.559Z,5.59
2019-05-07T21:30:36.360Z,5.52
2019-05-07T21:32:13.270Z,5.40
2019-05-07T21:33:54.378Z,5.30
2019-05-07T21:35:31.854Z,5.18
2019-05-07T21:37:09.775Z,5.06
2019-05-07T21:38:47.404Z,4.94
2019-05-07T21:40:26.277Z,4.84
2019-05-07T21:42:05.505Z,4.75
2019-05-07T21:43:43.053Z,4.67
2019-05-07T21:45:23.592Z,4.59
2019-05-07T21:46:57.453Z,4.53
2019-05-07T21:48:35.191Z,4.46
2019-05-07T21:50:17.503Z,4.39
2019-05-07T21:51:54.678Z,4.37
2019-05-07T21:53:35.652Z,4.29
2019-05-07T21:55:22.420Z,4.25
2019-05-07T21:57:14.486Z,4.18
2019-05-07T21:59:08.761Z,4.07
2019-05-07T22:01:02.044Z,4.05
2019-05-07T22:02:41.279Z,4.05
2019-05-07T22:04:20.892Z,4.05
2019-05-07T22:06:02.636Z,4.06
2019-05-07T22:07:40.709Z,4.07
2019-05-07T22:09:16.686Z,4.09
2019-05-07T22:10:51.934Z,4.04
2019-05-07T22:12:27.001Z,4.03
2019-05-07T22:14:02.325Z,4.05
2019-05-07T22:15:48.879Z,4.06
2019-05-07T22:17:26.706Z,3.99
2019-05-07T22:19:03.929Z,4.04
2019-05-07T22:20:45.348Z,4.02
2019-05-07T22:22:23.995Z,4.08
2019-05-07T22:23:59.585Z,4.00
2019-05-07T22:25:43.270Z,3.97